createdAt,value
2019-02-19T00:00:09.806Z,5.80
2019-02-19T00:02:37.657Z,5.80
2019-02-19T00:05:05.707Z,5.90
2019-02-19T00:07:33.592Z,6.00
2019-02-19T00:10:01.444Z,6.00
2019-02-19T00:12:29.355Z,6.00
2019-02-19T00:14:57.150Z,6.00
2019-02-19T00:17:24.967Z,6.00
2019-02-19T00:19:52.819Z,6.10
2019-02-19T00:22:20.688Z,6.10
2019-02-19T00:24:48.556Z,6.20
2019-02-19T00:27:16.440Z,6.30
2019-02-19T00:29:44.231Z,6.30
2019-02-19T00:32:12.339Z,6.30
2019-02-19T00:34:40.206Z,6.30
2019-02-19T00:37:08.079Z,6.30
2019-02-19T00:39:35.949Z,6.30
2019-02-19T00:42:03.855Z,6.30
2019-02-19T00:44:31.702Z,6.20
2019-02-19T00:46:59.829Z,6.20
2019-02-19T00:49:27.622Z,6.20
2019-02-19T00:51:55.532Z,6.20
2019-02-19T00:54:23.469Z,6.20
2019-02-19T00:56:51.275Z,6.20
2019-02-19T00:59:19.071Z,6.10
2019-02-19T01:01:46.859Z,6.10
2019-02-19T01:04:14.995Z,6.00
2019-02-19T01:06:42.811Z,6.00
2019-02-19T01:09:10.774Z,6.00
2019-02-19T01:11:38.648Z,6.00
2019-02-19T01:14:06.462Z,5.90
2019-02-19T01:16:34.289Z,5.90
2019-02-19T01:19:02.087Z,5.80
2019-02-19T01:21:29.863Z,5.80
2019-02-19T01:23:57.676Z,5.80
2019-02-19T01:26:25.497Z,5.80
2019-02-19T01:28:53.304Z,5.80
2019-02-19T01:31:21.151Z,5.80
2019-02-19T01:33:49.025Z,5.80
2019-02-19T01:36:16.879Z,5.80
2019-02-19T01:38:44.667Z,5.80
2019-02-19T01:41:12.439Z,5.80
2019-02-19T01:43:40.217Z,5.70
2019-02-19T01:46:08.034Z,5.70
2019-02-19T01:48:35.813Z,5.70
2019-02-19T01:51:03.658Z,5.60
2019-02-19T01:53:31.460Z,5.60
2019-02-19T01:55:59.382Z,5.60
2019-02-19T01:58:27.469Z,5.60
2019-02-19T02:00:55.613Z,5.70
2019-02-19T02:03:23.438Z,5.70
2019-02-19T02:05:51.566Z,5.70
2019-02-19T02:08:20.161Z,5.60
2019-02-19T02:10:47.964Z,5.70
2019-02-19T02:13:15.832Z,5.80
2019-02-19T02:15:43.597Z,5.80
2019-02-19T02:18:11.400Z,5.80
2019-02-19T02:20:39.681Z,5.80
2019-02-19T02:23:07.780Z,5.80
2019-02-19T02:25:35.653Z,5.90
2019-02-19T02:28:03.463Z,5.90
2019-02-19T02:30:31.300Z,5.90
2019-02-19T02:32:59.076Z,5.90
2019-02-19T02:35:26.947Z,5.90
2019-02-19T02:37:54.785Z,5.90
2019-02-19T02:40:22.665Z,6.00
2019-02-19T02:42:50.527Z,6.00
2019-02-19T02:45:18.419Z,6.00
2019-02-19T02:47:46.223Z,6.00
2019-02-19T02:50:14.012Z,6.00
2019-02-19T02:52:41.906Z,6.00
2019-02-19T02:55:09.785Z,6.00
2019-02-19T02:57:37.607Z,6.00
2019-02-19T03:00:05.565Z,6.00
2019-02-19T03:02:33.343Z,6.00
2019-02-19T03:05:01.153Z,6.10
2019-02-19T03:07:44.382Z,6.00
2019-02-19T03:10:12.161Z,6.00
2019-02-19T03:12:39.936Z,6.00
2019-02-19T03:15:07.855Z,6.00
2019-02-19T03:17:35.630Z,6.00
2019-02-19T03:20:03.677Z,6.00
2019-02-19T03:22:31.448Z,6.00
2019-02-19T03:24:59.343Z,5.90
2019-02-19T03:27:27.191Z,5.90
2019-02-19T03:29:54.975Z,5.80
2019-02-19T03:32:22.828Z,5.90
2019-02-19T03:34:50.707Z,5.90
2019-02-19T03:37:18.558Z,5.90
2019-02-19T03:40:07.558Z,5.90
2019-02-19T03:42:35.261Z,5.80
2019-02-19T03:45:03.197Z,5.80
2019-02-19T03:47:31.255Z,5.80
2019-02-19T03:49:59.130Z,5.70
2019-02-19T03:52:26.959Z,5.70
2019-02-19T03:54:54.754Z,5.70
2019-02-19T03:57:22.771Z,5.70
2019-02-19T03:59:50.586Z,5.60
2019-02-19T04:02:18.445Z,5.60
2019-02-19T04:04:46.311Z,5.70
2019-02-19T04:07:14.082Z,5.60
2019-02-19T04:09:41.969Z,5.60
2019-02-19T04:12:09.805Z,5.60
2019-02-19T04:14:37.612Z,5.60
2019-02-19T04:17:05.384Z,5.50
2019-02-19T04:19:33.210Z,5.50
2019-02-19T04:22:01.067Z,5.50
2019-02-19T04:24:28.988Z,5.60
2019-02-19T04:26:56.806Z,5.50
2019-02-19T04:29:24.615Z,5.50
2019-02-19T04:31:52.386Z,5.50
2019-02-19T04:34:20.220Z,5.60
2019-02-19T04:36:50.790Z,5.60
2019-02-19T04:39:18.613Z,5.60
2019-02-19T04:41:46.391Z,5.50
2019-02-19T04:44:14.240Z,5.50
2019-02-19T04:46:41.998Z,5.50
2019-02-19T04:49:09.888Z,5.50
2019-02-19T04:51:37.668Z,5.50
2019-02-19T04:54:05.502Z,5.50
2019-02-19T04:56:33.288Z,5.50
2019-02-19T04:59:01.079Z,5.50
2019-02-19T05:01:28.888Z,5.50
2019-02-19T05:03:56.756Z,5.40
2019-02-19T05:06:24.643Z,5.40
2019-02-19T05:08:52.484Z,5.40
2019-02-19T05:11:20.270Z,5.40
2019-02-19T05:13:48.093Z,5.40
2019-02-19T05:16:15.905Z,5.40
2019-02-19T05:18:43.674Z,5.40
2019-02-19T05:21:11.454Z,5.40
2019-02-19T05:23:39.278Z,5.50
2019-02-19T05:26:07.245Z,5.50
2019-02-19T05:28:35.115Z,5.50
2019-02-19T05:31:03.002Z,5.40
2019-02-19T05:33:31.147Z,5.40
2019-02-19T05:36:18.199Z,5.50
2019-02-19T05:38:45.990Z,5.50
2019-02-19T05:41:13.801Z,5.40
2019-02-19T05:43:41.666Z,5.50
2019-02-19T05:46:09.566Z,5.50
2019-02-19T05:48:37.417Z,5.50
2019-02-19T05:51:05.224Z,5.40
2019-02-19T05:53:33.051Z,5.40
2019-02-19T05:56:00.954Z,5.40
2019-02-19T05:58:28.884Z,5.50
2019-02-19T06:00:56.762Z,5.40
2019-02-19T06:03:24.614Z,5.40
2019-02-19T06:05:52.404Z,5.40
2019-02-19T06:08:20.178Z,5.50
2019-02-19T06:10:47.972Z,5.50
2019-02-19T06:13:16.075Z,5.50
2019-02-19T06:15:43.980Z,5.60
2019-02-19T06:18:11.885Z,5.60
2019-02-19T06:20:39.679Z,5.70
2019-02-19T06:23:07.468Z,5.70
2019-02-19T06:25:35.256Z,5.70
2019-02-19T06:28:03.084Z,5.70
2019-02-19T06:30:30.962Z,5.70
2019-02-19T06:32:58.807Z,5.80
2019-02-19T06:35:26.932Z,5.80
2019-02-19T06:37:54.702Z,5.90
2019-02-19T06:40:23.791Z,5.90
2019-02-19T06:42:51.882Z,5.80
2019-02-19T06:45:19.662Z,5.90
2019-02-19T06:47:47.454Z,5.90
2019-02-19T06:50:15.236Z,6.00
2019-02-19T06:52:43.023Z,6.10
2019-02-19T06:55:10.841Z,6.10
2019-02-19T06:57:38.649Z,6.20
2019-02-19T07:00:07.655Z,6.20
2019-02-19T07:02:52.150Z,6.30
2019-02-19T07:05:22.287Z,6.40
2019-02-19T07:07:50.267Z,6.40
2019-02-19T07:10:18.043Z,6.50
2019-02-19T07:12:45.842Z,6.60
2019-02-19T07:15:13.651Z,6.70
2019-02-19T07:17:41.890Z,6.70
2019-02-19T07:20:09.782Z,6.80
2019-02-19T07:22:37.587Z,6.90
2019-02-19T07:25:05.649Z,7.00
2019-02-19T07:27:33.457Z,7.10
2019-02-19T07:30:01.356Z,7.20
2019-02-19T07:32:29.206Z,7.20
2019-02-19T07:34:56.997Z,7.30
2019-02-19T07:37:24.789Z,7.40
2019-02-19T07:39:52.635Z,7.40
2019-02-19T07:42:20.516Z,7.50
2019-02-19T07:44:48.351Z,7.50
2019-02-19T07:47:24.239Z,7.60
2019-02-19T07:49:45.743Z,7.60
2019-02-19T07:52:13.550Z,7.60
2019-02-19T07:54:41.386Z,7.70
2019-02-19T07:57:09.310Z,7.80
2019-02-19T07:59:37.487Z,7.80
2019-02-19T08:02:05.302Z,7.80
2019-02-19T08:04:33.441Z,7.90
2019-02-19T08:07:01.250Z,7.90
2019-02-19T08:09:37.138Z,8.00
2019-02-19T08:12:04.967Z,8.10
2019-02-19T08:14:32.819Z,8.20
2019-02-19T08:17:00.721Z,8.20
2019-02-19T08:19:28.581Z,8.40
2019-02-19T08:21:56.426Z,8.50
2019-02-19T08:24:24.291Z,8.60
2019-02-19T08:26:52.086Z,8.60
2019-02-19T08:29:19.919Z,8.70
2019-02-19T08:31:48.076Z,8.90
2019-02-19T08:34:15.838Z,8.90
2019-02-19T08:36:43.614Z,9.00
2019-02-19T08:39:11.417Z,9.10
2019-02-19T08:41:39.189Z,9.10
2019-02-19T08:44:08.429Z,9.10
2019-02-19T08:46:36.474Z,9.20
2019-02-19T08:49:04.293Z,9.30
2019-02-19T08:51:32.159Z,9.30
2019-02-19T08:53:59.948Z,9.30
2019-02-19T08:56:27.787Z,9.40
2019-02-19T08:58:55.596Z,9.40
2019-02-19T09:01:23.367Z,9.40
2019-02-19T09:03:51.201Z,9.40
2019-02-19T09:06:18.968Z,9.50
2019-02-19T09:08:46.759Z,9.60
2019-02-19T09:11:14.603Z,9.70
2019-02-19T09:13:42.452Z,9.60
2019-02-19T09:16:10.215Z,9.60
2019-02-19T09:18:38.097Z,9.60
2019-02-19T09:21:05.946Z,9.60
2019-02-19T09:23:33.740Z,9.50
2019-02-19T09:26:01.542Z,9.50
2019-02-19T09:28:29.346Z,9.50
2019-02-19T09:30:57.206Z,9.60
2019-02-19T09:33:25.094Z,9.60
2019-02-19T09:35:52.957Z,9.60
2019-02-19T09:38:21.043Z,9.70
2019-02-19T09:40:48.892Z,9.80
2019-02-19T09:43:16.758Z,9.80
2019-02-19T09:45:44.539Z,9.80
2019-02-19T09:48:12.405Z,9.80
2019-02-19T09:50:40.172Z,9.80
2019-02-19T09:53:08.052Z,9.80
2019-02-19T09:55:36.168Z,9.90
2019-02-19T09:58:04.055Z,9.90
2019-02-19T10:00:31.911Z,9.90
2019-02-19T10:02:59.694Z,9.90
2019-02-19T10:05:27.576Z,9.90
2019-02-19T10:07:55.894Z,9.80
2019-02-19T10:10:23.912Z,9.80
2019-02-19T10:12:51.810Z,9.80
2019-02-19T10:15:19.599Z,9.80
2019-02-19T10:17:47.397Z,9.70
2019-02-19T10:20:15.169Z,9.70
2019-02-19T10:22:42.951Z,9.70
2019-02-19T10:25:10.847Z,9.70
2019-02-19T10:27:38.935Z,9.80
2019-02-19T10:30:07.735Z,9.90
2019-02-19T10:32:35.505Z,10.00
2019-02-19T10:35:03.310Z,10.00
2019-02-19T10:37:31.082Z,9.80
2019-02-19T10:39:58.869Z,9.70
2019-02-19T10:42:26.699Z,9.60
2019-02-19T10:44:54.586Z,9.70
2019-02-19T10:47:22.349Z,9.60
2019-02-19T10:49:50.223Z,9.60
2019-02-19T10:52:18.063Z,9.70
2019-02-19T10:54:45.945Z,9.70
2019-02-19T10:57:13.798Z,9.80
2019-02-19T11:02:10.416Z,10.10
2019-02-19T11:04:39.958Z,10.20
2019-02-19T11:07:07.935Z,10.30
2019-02-19T11:09:35.810Z,10.30
2019-02-19T11:12:03.665Z,10.30
2019-02-19T11:14:31.480Z,10.40
2019-02-19T11:16:59.242Z,10.40
2019-02-19T11:19:27.039Z,10.50
2019-02-19T11:21:54.819Z,10.40
2019-02-19T11:24:22.717Z,10.40
2019-02-19T11:48:58.318Z,10.60
2019-02-19T11:51:26.459Z,10.60
2019-02-19T11:53:54.260Z,10.50
2019-02-19T11:56:22.079Z,10.40
2019-02-19T11:58:49.889Z,10.30
2019-02-19T12:01:18.084Z,10.20
2019-02-19T12:03:45.952Z,10.10
2019-02-19T12:06:13.785Z,10.20
2019-02-19T12:08:41.657Z,10.40
2019-02-19T12:11:09.610Z,10.40
2019-02-19T12:16:04.925Z,10.50
2019-02-19T12:18:32.819Z,10.50
2019-02-19T12:21:00.700Z,10.60
2019-02-19T13:12:42.618Z,10.60
2019-02-19T13:15:11.181Z,10.50
2019-02-19T13:17:38.979Z,10.50
2019-02-19T13:20:07.402Z,10.60
2019-02-19T13:22:35.178Z,10.70
2019-02-19T13:25:02.979Z,10.70
2019-02-19T13:27:30.747Z,10.80
2019-02-19T13:29:58.618Z,10.90
2019-02-19T13:32:26.412Z,10.90
2019-02-19T13:34:54.249Z,10.90
2019-02-19T13:37:22.182Z,10.70
2019-02-19T13:39:49.959Z,10.80
2019-02-19T13:42:18.126Z,10.70
2019-02-19T13:44:45.902Z,10.60
2019-02-19T13:47:13.709Z,10.50
2019-02-19T13:49:41.502Z,10.40
2019-02-19T13:52:22.434Z,10.30
2019-02-19T13:54:50.311Z,10.40
2019-02-19T13:57:18.130Z,10.40
2019-02-19T13:59:46.097Z,10.60
2019-02-19T14:02:13.902Z,10.70
2019-02-19T14:04:41.698Z,10.80
2019-02-19T14:07:09.507Z,10.90
2019-02-19T14:09:37.288Z,10.80
2019-02-19T14:12:05.077Z,10.90
2019-02-19T14:14:41.713Z,10.90
2019-02-19T14:17:12.190Z,10.80
2019-02-19T14:19:53.746Z,10.80
2019-02-19T14:22:34.260Z,10.70
2019-02-19T14:25:14.582Z,10.80
2019-02-19T14:27:59.787Z,10.70
2019-02-19T14:30:41.171Z,10.50
2019-02-19T14:33:30.910Z,10.40
2019-02-19T14:36:16.534Z,10.30
2019-02-19T14:39:09.822Z,10.40
2019-02-19T14:41:54.964Z,10.40
2019-02-19T14:44:32.147Z,10.50
2019-02-19T14:47:06.063Z,10.50
2019-02-19T14:49:54.192Z,10.50
2019-02-19T14:52:44.358Z,10.50
2019-02-19T14:55:30.669Z,10.40
2019-02-19T14:58:17.687Z,10.40
2019-02-19T15:01:04.775Z,10.40
2019-02-19T15:03:50.794Z,10.40
2019-02-19T15:06:36.891Z,10.40
2019-02-19T15:09:21.350Z,10.40
2019-02-19T15:12:03.167Z,10.30
2019-02-19T15:14:59.203Z,10.30
2019-02-19T15:17:37.498Z,10.20
2019-02-19T15:20:21.666Z,10.10
2019-02-19T15:23:05.108Z,10.10
2019-02-19T15:25:51.051Z,10.10
2019-02-19T15:28:44.564Z,10.00
2019-02-19T15:31:30.483Z,10.00
2019-02-19T15:34:16.378Z,9.90
2019-02-19T15:36:59.591Z,9.80
2019-02-19T15:39:35.794Z,9.80
2019-02-19T15:42:21.899Z,9.80
2019-02-19T15:45:08.962Z,9.80
2019-02-19T15:47:55.945Z,9.80
2019-02-19T15:50:42.155Z,9.80
2019-02-19T15:53:27.934Z,9.80
2019-02-19T15:56:07.691Z,9.80
2019-02-19T15:58:53.843Z,9.80
2019-02-19T16:01:28.355Z,9.70
2019-02-19T16:04:00.726Z,9.70
2019-02-19T16:06:37.815Z,9.60
2019-02-19T16:09:24.452Z,9.60
2019-02-19T16:12:01.193Z,9.60
2019-02-19T16:14:55.098Z,9.60
2019-02-19T16:17:41.130Z,9.60
2019-02-19T16:20:16.014Z,9.60
2019-02-19T16:23:18.112Z,9.60
2019-02-19T16:26:03.536Z,9.60
2019-02-19T16:28:36.835Z,9.50
2019-02-19T16:31:11.290Z,9.60
2019-02-19T16:33:46.878Z,9.50
2019-02-19T16:36:27.100Z,9.50
2019-02-19T16:39:19.599Z,9.50
2019-02-19T16:41:54.282Z,9.50
2019-02-19T16:44:38.111Z,9.50
2019-02-19T16:47:19.911Z,9.50
2019-02-19T16:50:08.001Z,9.40
2019-02-19T16:53:03.785Z,9.40
2019-02-19T16:55:50.802Z,9.40
2019-02-19T16:58:55.919Z,9.40
2019-02-19T17:01:36.788Z,9.30
2019-02-19T17:04:15.020Z,9.40
2019-02-19T17:06:55.726Z,9.40
2019-02-19T17:09:31.244Z,9.40
2019-02-19T17:12:09.542Z,9.40
2019-02-19T17:15:03.095Z,9.30
2019-02-19T17:17:49.187Z,9.30
2019-02-19T17:20:35.753Z,9.30
2019-02-19T17:23:09.626Z,9.40
2019-02-19T17:25:55.471Z,9.30
2019-02-19T17:28:29.652Z,9.40
2019-02-19T17:31:14.796Z,9.40
2019-02-19T17:33:57.259Z,9.30
2019-02-19T17:36:40.513Z,9.40
2019-02-19T17:39:19.176Z,9.30
2019-02-19T17:42:06.186Z,9.30
2019-02-19T17:44:40.286Z,9.30
2019-02-19T17:47:18.303Z,9.30
2019-02-19T17:50:09.237Z,9.30
2019-02-19T17:52:43.770Z,9.20
2019-02-19T17:55:29.565Z,9.20
2019-02-19T17:58:19.349Z,9.20
2019-02-19T18:00:53.799Z,9.20
2019-02-19T18:03:39.710Z,9.10
2019-02-19T18:06:16.586Z,9.20
2019-02-19T18:08:53.061Z,9.20
2019-02-19T18:11:36.358Z,9.10
2019-02-19T18:14:22.086Z,9.20
2019-02-19T18:17:05.494Z,9.10
2019-02-19T18:19:33.423Z,9.10
2019-02-19T18:22:01.268Z,9.10
2019-02-19T18:24:29.155Z,9.10
2019-02-19T18:26:57.222Z,9.10
2019-02-19T18:29:25.038Z,9.10
2019-02-19T18:31:52.891Z,9.10
2019-02-19T18:34:20.697Z,9.00
2019-02-19T18:36:48.504Z,9.00
2019-02-19T18:39:16.307Z,9.00
2019-02-19T18:41:44.092Z,9.10
2019-02-19T18:44:11.903Z,9.10
2019-02-19T18:46:39.772Z,9.10
2019-02-19T18:49:07.898Z,9.10
2019-02-19T18:51:35.684Z,9.10
2019-02-19T18:54:03.488Z,9.10
2019-02-19T18:56:31.520Z,9.10
2019-02-19T18:58:59.507Z,9.10
2019-02-19T19:01:27.333Z,9.10
2019-02-19T19:03:55.467Z,9.10
2019-02-19T19:06:23.234Z,9.10
2019-02-19T19:08:51.288Z,9.10
2019-02-19T19:11:19.202Z,9.10
2019-02-19T19:13:47.335Z,9.10
2019-02-19T19:16:15.104Z,9.00
2019-02-19T19:18:42.931Z,9.00
2019-02-19T19:21:10.715Z,9.10
2019-02-19T19:23:38.492Z,9.00
2019-02-19T19:26:06.278Z,9.00
2019-02-19T19:28:34.055Z,9.00
2019-02-19T19:31:01.845Z,8.60
2019-02-19T19:33:29.922Z,8.30
2019-02-19T19:35:57.713Z,7.80
2019-02-19T19:38:25.488Z,7.40
2019-02-19T19:40:53.294Z,7.00
2019-02-19T19:43:21.079Z,6.70
2019-02-19T19:45:48.863Z,6.50
2019-02-19T19:48:16.642Z,6.50
2019-02-19T19:50:44.448Z,6.40
2019-02-19T19:53:12.225Z,6.30
2019-02-19T19:55:40.297Z,6.30
2019-02-19T19:58:08.169Z,6.20
2019-02-19T20:00:36.003Z,6.30
2019-02-19T20:03:04.546Z,6.20
2019-02-19T20:05:32.343Z,6.30
2019-02-19T20:08:00.118Z,6.30
2019-02-19T20:10:27.974Z,6.30
2019-02-19T20:12:55.834Z,6.30
2019-02-19T20:15:23.727Z,6.20
2019-02-19T20:17:51.506Z,6.20
2019-02-19T20:20:19.594Z,6.20
2019-02-19T20:22:47.366Z,6.20
2019-02-19T20:25:15.158Z,6.20
2019-02-19T20:27:42.928Z,6.20
2019-02-19T20:30:10.909Z,6.20
2019-02-19T20:32:38.774Z,6.20
2019-02-19T20:35:07.634Z,6.30
2019-02-19T20:37:35.422Z,6.20
2019-02-19T20:40:03.335Z,6.20
2019-02-19T20:42:31.167Z,6.20
2019-02-19T20:44:58.939Z,6.10
2019-02-19T20:47:26.747Z,6.10
2019-02-19T20:49:54.589Z,6.00
2019-02-19T20:52:22.448Z,5.90
2019-02-19T20:54:50.232Z,5.90
2019-02-19T20:57:18.027Z,5.90
2019-02-19T20:59:46.124Z,6.00
2019-02-19T21:02:14.020Z,6.00
2019-02-19T21:04:41.867Z,5.90
2019-02-19T21:07:09.722Z,5.90
2019-02-19T21:09:43.926Z,6.00
2019-02-19T21:12:07.410Z,6.00
2019-02-19T21:14:35.287Z,6.00
2019-02-19T21:17:03.174Z,6.00
2019-02-19T21:19:31.010Z,6.10
2019-02-19T21:21:58.907Z,6.20
2019-02-19T21:24:26.759Z,6.30
2019-02-19T21:26:54.635Z,6.30
2019-02-19T21:29:22.491Z,6.30
2019-02-19T21:31:50.380Z,6.20
2019-02-19T21:34:18.214Z,6.20
2019-02-19T21:36:46.112Z,6.10
2019-02-19T21:39:13.925Z,6.10
2019-02-19T21:41:41.920Z,6.00
2019-02-19T21:44:09.694Z,6.00
2019-02-19T21:46:37.747Z,6.00
2019-02-19T21:49:05.518Z,6.00
2019-02-19T21:51:33.636Z,6.00
2019-02-19T21:54:01.738Z,6.00
2019-02-19T21:56:29.528Z,6.00
2019-02-19T21:58:57.289Z,6.00
2019-02-19T22:01:25.212Z,5.90
2019-02-19T22:03:53.105Z,5.90
2019-02-19T22:06:20.932Z,5.90
2019-02-19T22:08:48.955Z,5.90
2019-02-19T22:11:16.792Z,5.90
2019-02-19T22:13:44.752Z,6.00
2019-02-19T22:16:12.715Z,6.10
2019-02-19T22:18:40.613Z,6.10
2019-02-19T22:21:14.069Z,6.20
2019-02-19T22:23:41.940Z,6.20
2019-02-19T22:26:09.794Z,6.20
2019-02-19T22:28:37.565Z,6.20
2019-02-19T22:31:05.511Z,6.20
2019-02-19T22:33:34.305Z,6.20
2019-02-19T22:36:02.820Z,6.20
2019-02-19T22:38:30.662Z,6.20
2019-02-19T22:40:58.521Z,6.10
2019-02-19T22:43:26.407Z,6.10
2019-02-19T22:45:54.246Z,6.10
2019-02-19T22:48:22.134Z,6.10
2019-02-19T22:50:49.914Z,6.00
2019-02-19T22:53:55.614Z,6.00
2019-02-19T22:56:29.291Z,5.90
2019-02-19T22:58:57.075Z,5.90
2019-02-19T23:01:30.719Z,5.90
2019-02-19T23:03:58.594Z,5.90
2019-02-19T23:06:26.409Z,5.90
2019-02-19T23:08:54.219Z,5.90
2019-02-19T23:11:22.168Z,5.90
2019-02-19T23:13:50.466Z,5.90
2019-02-19T23:16:18.412Z,5.90
2019-02-19T23:18:46.203Z,5.90
2019-02-19T23:21:13.988Z,5.90
2019-02-19T23:23:41.953Z,5.90
2019-02-19T23:26:09.803Z,5.90
2019-02-19T23:28:37.689Z,5.90
2019-02-19T23:31:05.535Z,5.90
2019-02-19T23:33:33.419Z,5.90
2019-02-19T23:36:12.416Z,5.90
2019-02-19T23:38:40.214Z,5.90
2019-02-19T23:41:08.068Z,5.90
2019-02-19T23:43:36.900Z,5.90
2019-02-19T23:46:04.719Z,5.90
2019-02-19T23:48:32.607Z,6.00
2019-02-19T23:51:00.378Z,6.00
2019-02-19T23:53:28.173Z,6.00
2019-02-19T23:55:55.985Z,6.00
2019-02-19T23:58:23.908Z,6.00
